createdAt,value
2024-04-10T00:00:19.674Z,999.37
2024-04-10T00:01:19.682Z,999.28
2024-04-10T00:02:19.717Z,999.30
2024-04-10T00:03:22.064Z,999.35
2024-04-10T00:04:20.677Z,999.31
2024-04-10T00:05:19.897Z,999.35
2024-04-10T00:06:19.746Z,999.27
2024-04-10T00:07:51.584Z,999.29
2024-04-10T00:08:19.643Z,999.28
2024-04-10T00:09:19.592Z,999.23
2024-04-10T00:10:19.651Z,999.18
2024-04-10T00:11:19.738Z,999.23
2024-04-10T00:12:19.629Z,999.27
2024-04-10T00:13:19.569Z,999.35
2024-04-10T00:14:19.590Z,999.29
2024-04-10T00:15:19.548Z,999.27
2024-04-10T00:16:19.570Z,999.21
2024-04-10T00:17:19.655Z,999.29
2024-04-10T00:18:19.600Z,999.25
2024-04-10T00:19:19.625Z,999.18
2024-04-10T00:20:19.583Z,999.21
2024-04-10T00:21:19.528Z,999.30
2024-04-10T00:22:19.508Z,999.30
2024-04-10T00:23:19.567Z,999.31
2024-04-10T00:24:19.482Z,999.43
2024-04-10T00:25:19.493Z,999.41
2024-04-10T00:26:19.503Z,999.37
2024-04-10T00:27:19.455Z,999.32
2024-04-10T00:28:19.454Z,999.34
2024-04-10T00:29:19.469Z,999.42
2024-04-10T00:30:19.468Z,999.42
2024-04-10T00:31:19.423Z,999.45
2024-04-10T00:32:19.608Z,999.37
2024-04-10T00:33:19.560Z,999.41
2024-04-10T00:34:19.593Z,999.38
2024-04-10T00:35:19.468Z,999.43
2024-04-10T00:36:19.388Z,999.41
2024-04-10T00:37:19.373Z,999.40
2024-04-10T00:38:19.388Z,999.38
2024-04-10T00:39:20.381Z,999.49
2024-04-10T00:40:19.349Z,999.48
2024-04-10T00:41:19.395Z,999.42
2024-04-10T00:42:19.330Z,999.41
2024-04-10T00:43:19.322Z,999.45
2024-04-10T00:44:19.412Z,999.43
2024-04-10T00:45:19.320Z,999.42
2024-04-10T00:46:19.306Z,999.47
2024-04-10T00:47:19.427Z,999.52
2024-04-10T00:48:19.540Z,999.48
2024-04-10T00:49:19.370Z,999.49
2024-04-10T00:50:19.386Z,999.49
2024-04-10T00:51:19.303Z,999.51
2024-04-10T00:52:19.261Z,999.43
2024-04-10T00:53:19.336Z,999.45
2024-04-10T00:54:19.295Z,999.42
2024-04-10T00:55:19.252Z,999.33
2024-04-10T00:56:22.166Z,999.46
2024-04-10T00:57:20.221Z,999.45
2024-04-10T00:58:19.267Z,999.46
2024-04-10T00:59:19.454Z,999.44
2024-04-10T01:00:19.195Z,999.33
2024-04-10T01:01:19.244Z,999.38
2024-04-10T01:02:19.249Z,999.36
2024-04-10T01:03:19.292Z,999.35
2024-04-10T01:04:19.192Z,999.44
2024-04-10T01:05:19.196Z,999.42
2024-04-10T01:06:19.146Z,999.40
2024-04-10T01:07:19.163Z,999.41
2024-04-10T01:08:19.196Z,999.44
2024-04-10T01:09:19.182Z,999.52
2024-04-10T01:10:19.114Z,999.47
2024-04-10T01:11:19.387Z,999.54
2024-04-10T01:12:19.155Z,999.58
2024-04-10T01:13:19.112Z,999.52
2024-04-10T01:14:19.105Z,999.57
2024-04-10T01:15:19.079Z,999.61
2024-04-10T01:16:19.187Z,999.62
2024-04-10T01:17:19.174Z,999.56
2024-04-10T01:18:19.139Z,999.66
2024-04-10T01:19:19.045Z,999.61
2024-04-10T01:20:19.119Z,999.59
2024-04-10T01:21:19.039Z,999.60
2024-04-10T01:22:19.058Z,999.66
2024-04-10T01:23:19.165Z,999.67
2024-04-10T01:24:19.010Z,999.66
2024-04-10T01:25:19.044Z,999.64
2024-04-10T01:26:19.181Z,999.66
2024-04-10T01:27:19.054Z,999.62
2024-04-10T01:28:18.979Z,999.70
2024-04-10T01:29:19.116Z,999.72
2024-04-10T01:30:18.969Z,999.66
2024-04-10T01:31:18.996Z,999.76
2024-04-10T01:32:19.144Z,999.71
2024-04-10T01:33:19.116Z,999.71
2024-04-10T01:34:19.049Z,999.76
2024-04-10T01:35:18.967Z,999.66
2024-04-10T01:36:18.944Z,999.67
2024-04-10T01:37:18.932Z,999.74
2024-04-10T01:38:18.915Z,999.71
2024-04-10T01:39:18.897Z,999.74
2024-04-10T01:40:18.938Z,999.79
2024-04-10T01:41:19.001Z,999.72
2024-04-10T01:42:18.890Z,999.83
2024-04-10T01:43:18.958Z,999.84
2024-04-10T01:44:18.929Z,999.93
2024-04-10T01:45:18.878Z,999.88
2024-04-10T01:46:18.831Z,999.94
2024-04-10T01:47:18.919Z,1000.04
2024-04-10T01:48:18.939Z,1000.06
2024-04-10T01:49:18.889Z,1000.01
2024-04-10T01:50:18.948Z,1000.05
2024-04-10T01:51:18.800Z,1000.06
2024-04-10T01:52:18.792Z,1000.09
2024-04-10T01:53:18.886Z,1000.00
2024-04-10T01:54:18.814Z,1000.08
2024-04-10T01:55:18.794Z,1000.11
2024-04-10T01:56:18.826Z,1000.09
2024-04-10T01:57:18.755Z,1000.10
2024-04-10T01:58:18.744Z,1000.11
2024-04-10T01:59:18.829Z,1000.08
2024-04-10T02:00:18.748Z,1000.12
2024-04-10T02:01:18.743Z,1000.12
2024-04-10T02:02:18.846Z,1000.16
2024-04-10T02:03:18.802Z,1000.22
2024-04-10T02:04:18.753Z,1000.16
2024-04-10T02:05:18.748Z,1000.19
2024-04-10T02:06:18.686Z,1000.19
2024-04-10T02:07:18.691Z,1000.17
2024-04-10T02:08:18.825Z,1000.18
2024-04-10T02:09:18.695Z,1000.12
2024-04-10T02:10:18.685Z,1000.22
2024-04-10T02:11:18.732Z,1000.26
2024-04-10T02:12:18.715Z,1000.20
2024-04-10T02:13:18.653Z,1000.20
2024-04-10T02:14:18.675Z,1000.19
2024-04-10T02:15:18.638Z,1000.17
2024-04-10T02:16:18.695Z,1000.29
2024-04-10T02:17:18.599Z,1000.25
2024-04-10T02:18:18.708Z,1000.30
2024-04-10T02:19:18.588Z,1000.31
2024-04-10T02:20:18.639Z,1000.26
2024-04-10T02:21:18.617Z,1000.32
2024-04-10T02:22:18.585Z,1000.39
2024-04-10T02:23:18.603Z,1000.32
2024-04-10T02:24:18.545Z,1000.45
2024-04-10T02:25:18.550Z,1000.46
2024-04-10T02:26:18.566Z,1000.56
2024-04-10T02:27:18.567Z,1000.57
2024-04-10T02:28:18.514Z,1000.61
2024-04-10T02:29:18.567Z,1000.61
2024-04-10T02:30:18.501Z,1000.54
2024-04-10T02:31:18.503Z,1000.60
2024-04-10T02:32:18.677Z,1000.50
2024-04-10T02:33:18.605Z,1000.61
2024-04-10T02:34:18.668Z,1000.58
2024-04-10T02:35:18.617Z,1000.60
2024-04-10T02:36:18.497Z,1000.57
2024-04-10T02:37:18.475Z,1000.61
2024-04-10T02:38:18.500Z,1000.59
2024-04-10T02:39:18.434Z,1000.64
2024-04-10T02:40:18.437Z,1000.65
2024-04-10T02:41:18.533Z,1000.71
2024-04-10T02:42:18.423Z,1000.64
2024-04-10T02:43:18.456Z,1000.67
2024-04-10T02:44:18.432Z,1000.67
2024-04-10T02:45:18.393Z,1000.65
2024-04-10T02:46:18.431Z,1000.64
2024-04-10T02:47:18.430Z,1000.76
2024-04-10T02:48:18.383Z,1000.75
2024-04-10T02:49:18.371Z,1000.83
2024-04-10T02:50:18.428Z,1000.76
2024-04-10T02:51:18.380Z,1000.79
2024-04-10T02:52:18.357Z,1000.70
2024-04-10T02:53:18.371Z,1000.73
2024-04-10T02:54:18.329Z,1000.83
2024-04-10T02:55:18.350Z,1000.79
2024-04-10T02:56:18.359Z,1000.83
2024-04-10T02:57:18.306Z,1000.89
2024-04-10T02:58:18.302Z,1000.83
2024-04-10T02:59:18.322Z,1000.84
2024-04-10T03:00:18.300Z,1000.85
2024-04-10T03:01:18.324Z,1000.90
2024-04-10T03:02:18.388Z,1000.86
2024-04-10T03:03:18.324Z,1000.93
2024-04-10T03:04:18.255Z,1000.96
2024-04-10T03:05:18.333Z,1000.93
2024-04-10T03:06:18.249Z,1000.96
2024-04-10T03:07:18.242Z,1000.98
2024-04-10T03:08:18.297Z,1000.92
2024-04-10T03:09:18.206Z,1001.05
2024-04-10T03:10:18.262Z,1001.09
2024-04-10T03:11:18.323Z,1000.95
2024-04-10T03:12:18.269Z,1001.13
2024-04-10T03:13:18.189Z,1001.08
2024-04-10T03:14:18.423Z,1001.15
2024-04-10T03:15:18.222Z,1001.15
2024-04-10T03:16:18.211Z,1001.17
2024-04-10T03:17:18.305Z,1001.20
2024-04-10T03:18:18.257Z,1001.18
2024-04-10T03:19:18.187Z,1001.13
2024-04-10T03:20:18.315Z,1001.21
2024-04-10T03:21:18.126Z,1001.23
2024-04-10T03:22:18.134Z,1001.18
2024-04-10T03:23:18.139Z,1001.21
2024-04-10T03:24:18.182Z,1001.21
2024-04-10T03:25:18.097Z,1001.29
2024-04-10T03:26:18.150Z,1001.39
2024-04-10T03:27:18.087Z,1001.35
2024-04-10T03:28:18.094Z,1001.39
2024-04-10T03:29:18.138Z,1001.41
2024-04-10T03:30:18.067Z,1001.42
2024-04-10T03:31:18.067Z,1001.40
2024-04-10T03:32:18.075Z,1001.44
2024-04-10T03:33:18.145Z,1001.46
2024-04-10T03:34:18.095Z,1001.51
2024-04-10T03:35:18.114Z,1001.50
2024-04-10T03:36:18.023Z,1001.58
2024-04-10T03:37:18.006Z,1001.55
2024-04-10T03:38:18.104Z,1001.60
2024-04-10T03:39:17.992Z,1001.63
2024-04-10T03:40:18.003Z,1001.59
2024-04-10T03:41:18.019Z,1001.67
2024-04-10T03:42:17.969Z,1001.62
2024-04-10T03:43:18.018Z,1001.66
2024-04-10T03:44:17.985Z,1001.75
2024-04-10T03:45:17.987Z,1001.74
2024-04-10T03:46:17.941Z,1001.75
2024-04-10T03:47:18.027Z,1001.75
2024-04-10T03:48:18.120Z,1001.77
2024-04-10T03:49:17.945Z,1001.74
2024-04-10T03:50:19.473Z,1001.80
2024-04-10T03:51:18.981Z,1001.87
2024-04-10T03:52:17.918Z,1001.84
2024-04-10T03:53:17.906Z,1001.79
2024-04-10T03:54:17.878Z,1001.83
2024-04-10T03:55:17.861Z,1001.89
2024-04-10T03:56:18.833Z,1001.81
2024-04-10T03:57:17.893Z,1001.87
2024-04-10T03:58:17.856Z,1001.82
2024-04-10T03:59:17.881Z,1001.87
2024-04-10T04:00:17.845Z,1001.90
2024-04-10T04:01:17.906Z,1001.85
2024-04-10T04:02:17.892Z,1001.96
2024-04-10T04:03:17.922Z,1001.95
2024-04-10T04:04:17.875Z,1002.02
2024-04-10T04:05:17.912Z,1001.99
2024-04-10T04:06:17.962Z,1001.99
2024-04-10T04:07:17.800Z,1002.04
2024-04-10T04:08:17.901Z,1002.03
2024-04-10T04:09:17.777Z,1001.98
2024-04-10T04:10:17.748Z,1002.03
2024-04-10T04:11:17.870Z,1002.07
2024-04-10T04:12:20.727Z,1002.00
2024-04-10T04:13:17.723Z,1002.03
2024-04-10T04:14:17.782Z,1002.01
2024-04-10T04:15:17.740Z,1002.09
2024-04-10T04:16:17.787Z,1002.08
2024-04-10T04:17:17.735Z,1002.14
2024-04-10T04:18:18.146Z,1002.13
2024-04-10T04:19:17.679Z,1002.20
2024-04-10T04:20:17.738Z,1002.19
2024-04-10T04:21:17.692Z,1002.21
2024-04-10T04:22:17.660Z,1002.21
2024-04-10T04:23:17.734Z,1002.17
2024-04-10T04:24:17.639Z,1002.24
2024-04-10T04:25:17.665Z,1002.30
2024-04-10T04:26:17.694Z,1002.24
2024-04-10T04:27:17.610Z,1002.31
2024-04-10T04:28:17.602Z,1002.25
2024-04-10T04:29:17.619Z,1002.28
2024-04-10T04:30:17.659Z,1002.22
2024-04-10T04:31:17.596Z,1002.29
2024-04-10T04:32:17.678Z,1002.38
2024-04-10T04:33:17.678Z,1002.38
2024-04-10T04:34:17.757Z,1002.44
2024-04-10T04:35:17.631Z,1002.43
2024-04-10T04:36:17.544Z,1002.44
2024-04-10T04:37:17.537Z,1002.56
2024-04-10T04:38:17.643Z,1002.60
2024-04-10T04:39:17.540Z,1002.60
2024-04-10T04:40:17.536Z,1002.59
2024-04-10T04:41:17.539Z,1002.59
2024-04-10T04:42:17.500Z,1002.63
2024-04-10T04:43:17.498Z,1002.66
2024-04-10T04:44:17.568Z,1002.62
2024-04-10T04:45:17.480Z,1002.62
2024-04-10T04:46:17.507Z,1002.69
2024-04-10T04:47:18.557Z,1002.65
2024-04-10T04:48:17.747Z,1002.67
2024-04-10T04:49:17.492Z,1002.74
2024-04-10T04:50:17.441Z,1002.74
2024-04-10T04:51:17.431Z,1002.77
2024-04-10T04:52:17.418Z,1002.79
2024-04-10T04:53:18.463Z,1002.85
2024-04-10T04:54:17.447Z,1002.83
2024-04-10T04:55:17.445Z,1002.85
2024-04-10T04:56:17.459Z,1002.91
2024-04-10T04:57:17.387Z,1002.97
2024-04-10T04:58:17.467Z,1003.00
2024-04-10T04:59:17.574Z,1002.99
2024-04-10T05:00:17.383Z,1003.00
2024-04-10T05:01:17.391Z,1003.03
2024-04-10T05:02:17.449Z,1003.05
2024-04-10T05:03:17.505Z,1003.02
2024-04-10T05:04:17.403Z,1003.08
2024-04-10T05:05:17.470Z,1003.08
2024-04-10T05:06:19.541Z,1003.10
2024-04-10T05:07:18.349Z,1003.10
2024-04-10T05:08:17.345Z,1003.16
2024-04-10T05:09:17.293Z,1003.14
2024-04-10T05:10:17.315Z,1003.12
2024-04-10T05:11:17.343Z,1003.09
2024-04-10T05:12:17.500Z,1003.17
2024-04-10T05:13:17.262Z,1003.14
2024-04-10T05:14:17.310Z,1003.15
2024-04-10T05:15:17.272Z,1003.22
2024-04-10T05:16:17.254Z,1003.22
2024-04-10T05:17:17.364Z,1003.27
2024-04-10T05:18:17.235Z,1003.23
2024-04-10T05:19:17.224Z,1003.36
2024-04-10T05:20:18.572Z,1003.36
2024-04-10T05:21:17.207Z,1003.33
2024-04-10T05:22:17.225Z,1003.28
2024-04-10T05:23:17.384Z,1003.36
2024-04-10T05:24:17.176Z,1003.28
2024-04-10T05:25:17.164Z,1003.34
2024-04-10T05:26:17.215Z,1003.36
2024-04-10T05:27:17.191Z,1003.40
2024-04-10T05:28:17.138Z,1003.38
2024-04-10T05:29:17.176Z,1003.42
2024-04-10T05:30:17.127Z,1003.44
2024-04-10T05:31:17.141Z,1003.41
2024-04-10T05:32:17.129Z,1003.40
2024-04-10T05:33:17.167Z,1003.54
2024-04-10T05:34:17.317Z,1003.56
2024-04-10T05:35:17.262Z,1003.55
2024-04-10T05:36:17.105Z,1003.55
2024-04-10T05:37:17.064Z,1003.67
2024-04-10T05:38:17.119Z,1003.64
2024-04-10T05:39:17.056Z,1003.72
2024-04-10T05:40:17.129Z,1003.68
2024-04-10T05:41:17.723Z,1003.79
2024-04-10T05:42:18.038Z,1003.71
2024-04-10T05:43:17.037Z,1003.80
2024-04-10T05:44:17.049Z,1003.75
2024-04-10T05:45:17.030Z,1003.74
2024-04-10T05:46:17.064Z,1003.90
2024-04-10T05:47:17.020Z,1003.87
2024-04-10T05:48:17.151Z,1003.84
2024-04-10T05:49:16.975Z,1003.90
2024-04-10T05:50:17.071Z,1003.93
2024-04-10T05:51:17.001Z,1003.97
2024-04-10T05:52:16.955Z,1003.95
2024-04-10T05:53:17.067Z,1004.04
2024-04-10T05:54:16.931Z,1004.02
2024-04-10T05:55:17.041Z,1003.97
2024-04-10T05:56:17.012Z,1003.96
2024-04-10T05:57:16.911Z,1004.03
2024-04-10T05:58:16.898Z,1004.10
2024-04-10T05:59:17.935Z,1004.09
2024-04-10T06:00:16.926Z,1004.08
2024-04-10T06:01:16.917Z,1004.08
2024-04-10T06:02:17.027Z,1004.11
2024-04-10T06:03:16.985Z,1004.01
2024-04-10T06:04:16.919Z,1004.06
2024-04-10T06:05:17.031Z,1004.08
2024-04-10T06:06:16.846Z,1004.08
2024-04-10T06:07:16.825Z,1004.01
2024-04-10T06:08:50.359Z,1004.07
2024-04-10T06:09:16.859Z,1004.06
2024-04-10T06:10:16.806Z,1004.13
2024-04-10T06:11:16.973Z,1004.15
2024-04-10T06:12:16.917Z,1004.24
2024-04-10T06:13:16.794Z,1004.26
2024-04-10T06:14:16.852Z,1004.28
2024-04-10T06:15:16.786Z,1004.26
2024-04-10T06:16:16.786Z,1004.22
2024-04-10T06:17:16.804Z,1004.21
2024-04-10T06:18:16.868Z,1004.19
2024-04-10T06:19:16.768Z,1004.12
2024-04-10T06:20:16.785Z,1004.20
2024-04-10T06:21:16.750Z,1004.21
2024-04-10T06:22:18.899Z,1004.24
2024-04-10T06:23:17.785Z,1004.26
2024-04-10T06:24:16.701Z,1004.28
2024-04-10T06:25:16.694Z,1004.29
2024-04-10T06:26:16.767Z,1004.29
2024-04-10T06:27:16.688Z,1004.26
2024-04-10T06:28:16.707Z,1004.36
2024-04-10T06:29:16.732Z,1004.36
2024-04-10T06:30:16.667Z,1004.40
2024-04-10T06:31:16.660Z,1004.44
2024-04-10T06:32:17.123Z,1004.40
2024-04-10T06:33:16.784Z,1004.40
2024-04-10T06:34:16.771Z,1004.43
2024-04-10T06:35:16.648Z,1004.47
2024-04-10T06:36:16.638Z,1004.45
2024-04-10T06:37:16.661Z,1004.41
2024-04-10T06:38:16.629Z,1004.43
2024-04-10T06:39:16.593Z,1004.41
2024-04-10T06:40:16.590Z,1004.46
2024-04-10T06:41:16.677Z,1004.46
2024-04-10T06:42:16.595Z,1004.46
2024-04-10T06:43:16.568Z,1004.33
2024-04-10T06:44:16.618Z,1004.44
2024-04-10T06:45:16.563Z,1004.44
2024-04-10T06:46:16.553Z,1004.43
2024-04-10T06:47:16.673Z,1004.49
2024-04-10T06:48:16.644Z,1004.53
2024-04-10T06:49:16.683Z,1004.55
2024-04-10T06:50:16.583Z,1004.50
2024-04-10T06:51:16.540Z,1004.54
2024-04-10T06:52:16.681Z,1004.51
2024-04-10T06:53:16.627Z,1004.53
2024-04-10T06:54:19.318Z,1004.54
2024-04-10T06:55:17.520Z,1004.52
2024-04-10T06:56:16.672Z,1004.55
2024-04-10T06:57:17.567Z,1004.49
2024-04-10T06:58:16.453Z,1004.50
2024-04-10T06:59:16.485Z,1004.48
2024-04-10T07:00:16.443Z,1004.51
2024-04-10T07:01:17.034Z,1004.55
2024-04-10T07:02:16.446Z,1004.58
2024-04-10T07:03:16.443Z,1004.58
2024-04-10T07:04:16.466Z,1004.58
2024-04-10T07:05:16.471Z,1004.58
2024-04-10T07:06:17.108Z,1004.57
2024-04-10T07:07:16.392Z,1004.60
2024-04-10T07:08:16.454Z,1004.52
2024-04-10T07:09:16.391Z,1004.58
2024-04-10T07:10:17.447Z,1004.67
2024-04-10T07:11:20.186Z,1004.59
2024-04-10T07:12:17.465Z,1004.71
2024-04-10T07:13:16.352Z,1004.73
2024-04-10T07:14:16.362Z,1004.74
2024-04-10T07:15:16.360Z,1004.77
2024-04-10T07:16:16.356Z,1004.78
2024-04-10T07:17:16.414Z,1004.85
2024-04-10T07:18:16.407Z,1004.75
2024-04-10T07:19:16.303Z,1004.74
2024-04-10T07:20:16.359Z,1004.73
2024-04-10T07:21:16.294Z,1004.79
2024-04-10T07:22:16.271Z,1004.77
2024-04-10T07:23:16.297Z,1004.79
2024-04-10T07:24:16.264Z,1004.74
2024-04-10T07:25:16.386Z,1004.77
2024-04-10T07:26:16.296Z,1004.82
2024-04-10T07:27:16.229Z,1004.78
2024-04-10T07:28:16.216Z,1004.77
2024-04-10T07:29:16.277Z,1004.84
2024-04-10T07:30:16.230Z,1004.79
2024-04-10T07:31:16.203Z,1004.92
2024-04-10T07:32:16.304Z,1004.88
2024-04-10T07:33:16.296Z,1004.88
2024-04-10T07:34:16.421Z,1004.96
2024-04-10T07:35:16.190Z,1004.95
2024-04-10T07:36:16.155Z,1004.93
2024-04-10T07:37:16.146Z,1004.91
2024-04-10T07:38:16.163Z,1005.07
2024-04-10T07:39:16.157Z,1005.08
2024-04-10T07:40:16.135Z,1005.10
2024-04-10T07:41:16.201Z,1005.08
2024-04-10T07:42:16.109Z,1005.12
2024-04-10T07:43:16.097Z,1005.17
2024-04-10T07:44:16.193Z,1005.17
2024-04-10T07:45:16.088Z,1005.22
2024-04-10T07:46:16.081Z,1005.22
2024-04-10T07:47:16.286Z,1005.21
2024-04-10T07:48:16.176Z,1005.22
2024-04-10T07:49:16.164Z,1005.20
2024-04-10T07:50:17.079Z,1005.27
2024-04-10T07:51:16.042Z,1005.20
2024-04-10T07:52:16.025Z,1005.29
2024-04-10T07:53:16.105Z,1005.19
2024-04-10T07:54:16.061Z,1005.25
2024-04-10T07:55:16.000Z,1005.21
2024-04-10T07:56:16.104Z,1005.28
2024-04-10T07:57:15.992Z,1005.31
2024-04-10T07:58:16.011Z,1005.24
2024-04-10T07:59:16.082Z,1005.23
2024-04-10T08:00:15.985Z,1005.24
2024-04-10T08:01:15.986Z,1005.27
2024-04-10T08:02:15.983Z,1005.27
2024-04-10T08:03:16.026Z,1005.29
2024-04-10T08:04:15.988Z,1005.22
2024-04-10T08:05:15.952Z,1005.28
2024-04-10T08:06:15.963Z,1005.29
2024-04-10T08:07:15.935Z,1005.31
2024-04-10T08:08:15.973Z,1005.26
2024-04-10T08:09:15.896Z,1005.32
2024-04-10T08:10:15.881Z,1005.39
2024-04-10T08:11:16.490Z,1005.35
2024-04-10T08:12:16.082Z,1005.27
2024-04-10T08:13:15.893Z,1005.31
2024-04-10T08:14:15.916Z,1005.34
2024-04-10T08:15:15.834Z,1005.37
2024-04-10T08:16:17.294Z,1005.37
2024-04-10T08:17:16.087Z,1005.38
2024-04-10T08:18:15.888Z,1005.37
2024-04-10T08:19:15.839Z,1005.39
2024-04-10T08:20:15.840Z,1005.19
2024-04-10T08:21:16.096Z,1005.23
2024-04-10T08:22:15.820Z,1005.30
2024-04-10T08:23:15.855Z,1005.39
2024-04-10T08:24:15.763Z,1005.43
2024-04-10T08:25:15.755Z,1005.41
2024-04-10T08:26:15.862Z,1005.38
2024-04-10T08:27:15.797Z,1005.33
2024-04-10T08:28:15.742Z,1005.37
2024-04-10T08:29:15.762Z,1005.39
2024-04-10T08:30:15.721Z,1005.31
2024-04-10T08:31:15.737Z,1005.38
2024-04-10T08:32:15.760Z,1005.48
2024-04-10T08:33:15.780Z,1005.42
2024-04-10T08:34:15.837Z,1005.46
2024-04-10T08:35:15.803Z,1005.39
2024-04-10T08:36:15.821Z,1005.41
2024-04-10T08:37:15.665Z,1005.48
2024-04-10T08:38:15.751Z,1005.50
2024-04-10T08:39:15.655Z,1005.52
2024-04-10T08:40:15.692Z,1005.48
2024-04-10T08:41:15.660Z,1005.61
2024-04-10T08:42:15.662Z,1005.65
2024-04-10T08:43:15.789Z,1005.60
2024-04-10T08:44:15.609Z,1005.61
2024-04-10T08:45:16.732Z,1005.63
2024-04-10T08:46:16.622Z,1005.64
2024-04-10T08:47:15.763Z,1005.69
2024-04-10T08:48:15.700Z,1005.65
2024-04-10T08:49:15.692Z,1005.72
2024-04-10T08:50:15.600Z,1005.69
2024-04-10T08:51:15.681Z,1005.67
2024-04-10T08:52:15.559Z,1005.69
2024-04-10T08:53:15.569Z,1005.64
2024-04-10T08:54:15.589Z,1005.68
2024-04-10T08:55:15.590Z,1005.72
2024-04-10T08:56:15.566Z,1005.69
2024-04-10T08:57:15.550Z,1005.72
2024-04-10T08:58:48.905Z,1005.74
2024-04-10T08:59:15.519Z,1005.73
2024-04-10T09:00:15.596Z,1005.77
2024-04-10T09:01:15.548Z,1005.83
2024-04-10T09:02:15.470Z,1005.83
2024-04-10T09:03:15.638Z,1005.79
2024-04-10T09:04:15.640Z,1005.86
2024-04-10T09:05:15.585Z,1005.82
2024-04-10T09:06:15.490Z,1005.88
2024-04-10T09:07:15.460Z,1005.85
2024-04-10T09:08:15.431Z,1005.90
2024-04-10T09:09:15.500Z,1005.88
2024-04-10T09:10:15.432Z,1005.93
2024-04-10T09:11:15.427Z,1005.95
2024-04-10T09:12:15.393Z,1005.95
2024-04-10T09:13:15.386Z,1006.02
2024-04-10T09:14:16.589Z,1005.96
2024-04-10T09:15:15.439Z,1005.99
2024-04-10T09:16:15.379Z,1006.01
2024-04-10T09:17:15.366Z,1006.00
2024-04-10T09:18:15.361Z,1006.08
2024-04-10T09:19:15.417Z,1006.03
2024-04-10T09:20:15.342Z,1006.07
2024-04-10T09:21:15.321Z,1006.10
2024-04-10T09:22:15.325Z,1006.07
2024-04-10T09:23:15.350Z,1006.12
2024-04-10T09:24:15.524Z,1006.16
2024-04-10T09:25:15.399Z,1006.15
2024-04-10T09:26:15.342Z,1006.18
2024-04-10T09:27:15.288Z,1006.17
2024-04-10T09:28:15.308Z,1006.22
2024-04-10T09:29:16.358Z,1006.13
2024-04-10T09:30:15.256Z,1006.20
2024-04-10T09:31:15.252Z,1006.23
2024-04-10T09:32:15.326Z,1006.32
2024-04-10T09:33:15.732Z,1006.25
2024-04-10T09:34:15.424Z,1006.34
2024-04-10T09:35:15.297Z,1006.33
2024-04-10T09:36:15.209Z,1006.27
2024-04-10T09:37:15.195Z,1006.28
2024-04-10T09:38:15.237Z,1006.39
2024-04-10T09:39:15.176Z,1006.30
2024-04-10T09:40:15.165Z,1006.35
2024-04-10T09:41:15.207Z,1006.38
2024-04-10T09:42:15.175Z,1006.31
2024-04-10T09:43:15.185Z,1006.35
2024-04-10T09:44:15.226Z,1006.30
2024-04-10T09:45:15.177Z,1006.35
2024-04-10T09:46:15.153Z,1006.39
2024-04-10T09:47:15.209Z,1006.34
2024-04-10T09:48:16.243Z,1006.31
2024-04-10T09:49:15.222Z,1006.29
2024-04-10T09:50:15.158Z,1006.34
2024-04-10T09:51:15.139Z,1006.31
2024-04-10T09:52:15.112Z,1006.29
2024-04-10T09:53:15.147Z,1006.31
2024-04-10T09:54:15.095Z,1006.21
2024-04-10T09:55:15.083Z,1006.27
2024-04-10T09:56:15.118Z,1006.30
2024-04-10T09:57:15.074Z,1006.32
2024-04-10T09:58:15.185Z,1006.20
2024-04-10T09:59:15.953Z,1006.28
2024-04-10T10:00:15.055Z,1006.24
2024-04-10T10:01:15.089Z,1006.34
2024-04-10T10:02:15.099Z,1006.25
2024-04-10T10:03:15.157Z,1006.25
2024-04-10T10:04:15.024Z,1006.27
2024-04-10T10:05:15.034Z,1006.26
2024-04-10T10:06:15.042Z,1006.19
2024-04-10T10:07:15.004Z,1006.21
2024-04-10T10:08:15.137Z,1006.25
2024-04-10T10:09:14.957Z,1006.18
2024-04-10T10:10:14.993Z,1006.22
2024-04-10T10:11:15.068Z,1006.28
2024-04-10T10:12:14.978Z,1006.27
2024-04-10T10:13:14.923Z,1006.30
2024-04-10T10:14:14.997Z,1006.28
2024-04-10T10:15:14.910Z,1006.28
2024-04-10T10:16:15.041Z,1006.34
2024-04-10T10:17:14.942Z,1006.34
2024-04-10T10:18:18.584Z,1006.30
2024-04-10T10:19:17.000Z,1006.30
2024-04-10T10:20:14.937Z,1006.36
2024-04-10T10:21:14.896Z,1006.29
2024-04-10T10:22:14.855Z,1006.28
2024-04-10T10:23:14.891Z,1006.23
2024-04-10T10:24:14.970Z,1006.24
2024-04-10T10:25:14.869Z,1006.27
2024-04-10T10:26:14.856Z,1006.29
2024-04-10T10:27:14.878Z,1006.28
2024-04-10T10:28:14.830Z,1006.33
2024-04-10T10:29:16.798Z,1006.36
2024-04-10T10:30:15.880Z,1006.36
2024-04-10T10:31:14.790Z,1006.27
2024-04-10T10:32:14.856Z,1006.37
2024-04-10T10:33:14.860Z,1006.34
2024-04-10T10:34:16.560Z,1006.37
2024-04-10T10:35:18.750Z,1006.35
2024-04-10T10:36:14.812Z,1006.42
2024-04-10T10:37:17.156Z,1006.36
2024-04-10T10:38:15.807Z,1006.45
2024-04-10T10:39:16.688Z,1006.39
2024-04-10T10:40:14.718Z,1006.40
2024-04-10T10:41:18.704Z,1006.25
2024-04-10T10:42:15.800Z,1006.30
2024-04-10T10:43:14.701Z,1006.34
2024-04-10T10:44:14.756Z,1006.32
2024-04-10T10:45:14.676Z,1006.32
2024-04-10T10:46:14.691Z,1006.40
2024-04-10T10:47:14.721Z,1006.39
2024-04-10T10:48:14.776Z,1006.38
2024-04-10T10:49:14.755Z,1006.35
2024-04-10T10:50:14.698Z,1006.35
2024-04-10T10:51:14.649Z,1006.32
2024-04-10T10:52:14.624Z,1006.44
2024-04-10T10:53:14.720Z,1006.32
2024-04-10T10:54:14.611Z,1006.29
2024-04-10T10:55:14.618Z,1006.34
2024-04-10T10:56:14.647Z,1006.39
2024-04-10T10:57:14.592Z,1006.40
2024-04-10T10:58:14.620Z,1006.30
2024-04-10T10:59:14.591Z,1006.28
2024-04-10T11:00:14.568Z,1006.36
2024-04-10T11:01:14.634Z,1006.33
2024-04-10T11:02:14.689Z,1006.34
2024-04-10T11:03:20.840Z,1006.33
2024-04-10T11:04:15.811Z,1006.31
2024-04-10T11:05:14.682Z,1006.34
2024-04-10T11:06:14.754Z,1006.37
2024-04-10T11:07:14.543Z,1006.36
2024-04-10T11:08:14.554Z,1006.40
2024-04-10T11:09:14.585Z,1006.36
2024-04-10T11:10:14.535Z,1006.40
2024-04-10T11:11:14.577Z,1006.39
2024-04-10T11:12:14.589Z,1006.39
2024-04-10T11:13:14.478Z,1006.43
2024-04-10T11:14:14.555Z,1006.46
2024-04-10T11:15:14.457Z,1006.46
2024-04-10T11:16:14.504Z,1006.51
2024-04-10T11:17:14.559Z,1006.45
2024-04-10T11:18:14.521Z,1006.49
2024-04-10T11:19:14.423Z,1006.50
2024-04-10T11:20:14.451Z,1006.48
2024-04-10T11:21:14.429Z,1006.41
2024-04-10T11:22:14.424Z,1006.44
2024-04-10T11:23:14.392Z,1006.39
2024-04-10T11:24:14.388Z,1006.41
2024-04-10T11:25:14.374Z,1006.42
2024-04-10T11:26:14.515Z,1006.39
2024-04-10T11:27:14.361Z,1006.38
2024-04-10T11:28:14.461Z,1006.46
2024-04-10T11:29:14.378Z,1006.49
2024-04-10T11:30:14.333Z,1006.46
2024-04-10T11:31:14.351Z,1006.43
2024-04-10T11:32:14.407Z,1006.32
2024-04-10T11:33:14.678Z,1006.20
2024-04-10T11:34:14.574Z,1006.33
2024-04-10T11:35:14.355Z,1006.52
2024-04-10T11:36:14.343Z,1006.48
2024-04-10T11:37:14.287Z,1006.49
2024-04-10T11:38:14.316Z,1006.53
2024-04-10T11:39:14.328Z,1006.53
2024-04-10T11:40:14.335Z,1006.55
2024-04-10T11:41:14.317Z,1006.55
2024-04-10T11:42:14.266Z,1006.55
2024-04-10T11:43:14.227Z,1006.55
2024-04-10T11:44:14.277Z,1006.54
2024-04-10T11:45:14.259Z,1006.55
2024-04-10T11:46:14.196Z,1006.53
2024-04-10T11:47:14.327Z,1006.56
2024-04-10T11:48:14.299Z,1006.58
2024-04-10T11:49:14.329Z,1006.63
2024-04-10T11:50:14.978Z,1006.66
2024-04-10T11:51:14.160Z,1006.57
2024-04-10T11:52:14.177Z,1006.57
2024-04-10T11:53:14.195Z,1006.65
2024-04-10T11:54:14.174Z,1006.62
2024-04-10T11:55:14.172Z,1006.61
2024-04-10T11:56:14.309Z,1006.59
2024-04-10T11:57:14.133Z,1006.71
2024-04-10T11:58:14.149Z,1006.70
2024-04-10T11:59:14.284Z,1006.67
2024-04-10T12:00:14.166Z,1006.73
2024-04-10T12:01:14.092Z,1006.67
2024-04-10T12:02:14.133Z,1006.68
2024-04-10T12:03:14.188Z,1006.60
2024-04-10T12:04:14.221Z,1006.70
2024-04-10T12:05:14.396Z,1006.71
2024-04-10T12:06:14.145Z,1006.70
2024-04-10T12:07:14.039Z,1006.71
2024-04-10T12:08:14.090Z,1006.71
2024-04-10T12:09:14.119Z,1006.70